createdAt,value
2018-07-08T00:00:36.166Z,15.61
2018-07-08T00:01:36.137Z,15.61
2018-07-08T00:02:36.064Z,15.54
2018-07-08T00:03:36.018Z,15.65
2018-07-08T00:04:35.969Z,15.65
2018-07-08T00:05:35.923Z,15.58
2018-07-08T00:06:35.898Z,15.61
2018-07-08T00:07:35.826Z,15.57
2018-07-08T00:08:35.778Z,15.55
2018-07-08T00:09:35.736Z,15.50
2018-07-08T00:10:35.690Z,15.43
2018-07-08T00:11:35.652Z,15.36
2018-07-08T00:12:35.593Z,15.33
2018-07-08T00:13:35.537Z,15.27
2018-07-08T00:14:35.491Z,15.21
2018-07-08T00:15:35.445Z,15.21
2018-07-08T00:16:35.419Z,15.18
2018-07-08T00:17:35.349Z,15.14
2018-07-08T00:18:35.309Z,15.15
2018-07-08T00:19:35.255Z,15.12
2018-07-08T00:20:35.201Z,15.07
2018-07-08T00:21:35.185Z,15.02
2018-07-08T00:22:35.117Z,15.00
2018-07-08T00:23:35.058Z,15.00
2018-07-08T00:24:35.012Z,14.96
2018-07-08T00:25:34.965Z,14.97
2018-07-08T00:26:34.939Z,14.93
2018-07-08T00:27:34.870Z,14.85
2018-07-08T00:28:34.822Z,14.85
2018-07-08T00:29:34.773Z,14.70
2018-07-08T00:30:34.729Z,14.70
2018-07-08T00:31:34.700Z,14.65
2018-07-08T00:32:34.634Z,14.62
2018-07-08T00:33:34.578Z,14.62
2018-07-08T00:34:34.532Z,14.65
2018-07-08T00:35:34.485Z,14.55
2018-07-08T00:36:34.462Z,14.55
2018-07-08T00:37:34.399Z,14.53
2018-07-08T00:38:34.340Z,14.48
2018-07-08T00:39:34.295Z,14.51
2018-07-08T00:40:34.242Z,14.58
2018-07-08T00:41:34.225Z,14.55
2018-07-08T00:42:34.156Z,14.50
2018-07-08T00:43:34.100Z,14.53
2018-07-08T00:44:34.061Z,14.59
2018-07-08T00:45:34.003Z,14.66
2018-07-08T00:46:33.984Z,14.65
2018-07-08T00:47:33.908Z,14.70
2018-07-08T00:48:33.862Z,14.68
2018-07-08T00:49:33.812Z,14.63
2018-07-08T00:50:33.773Z,14.63
2018-07-08T00:51:33.745Z,14.63
2018-07-08T00:52:33.668Z,14.63
2018-07-08T00:53:33.622Z,14.53
2018-07-08T00:54:33.578Z,14.48
2018-07-08T00:55:33.522Z,14.53
2018-07-08T00:56:33.500Z,14.43
2018-07-08T00:57:33.428Z,14.44
2018-07-08T00:58:33.378Z,14.38
2018-07-08T00:59:33.332Z,14.38
2018-07-08T01:00:33.287Z,14.40
2018-07-08T01:01:33.288Z,14.36
2018-07-08T01:02:33.187Z,14.43
2018-07-08T01:03:33.136Z,14.40
2018-07-08T01:04:33.089Z,14.26
2018-07-08T01:05:33.044Z,14.22
2018-07-08T01:06:33.021Z,14.25
2018-07-08T01:07:32.945Z,14.20
2018-07-08T01:08:32.901Z,14.13
2018-07-08T01:09:32.848Z,14.10
2018-07-08T01:10:32.805Z,14.10
2018-07-08T01:11:32.803Z,14.03
2018-07-08T01:12:32.705Z,13.97
2018-07-08T01:13:32.662Z,13.97
2018-07-08T01:14:32.610Z,14.07
2018-07-08T01:15:32.560Z,14.00
2018-07-08T01:16:32.513Z,13.97
2018-07-08T01:17:32.486Z,13.93
2018-07-08T01:18:32.417Z,13.90
2018-07-08T01:19:32.370Z,13.95
2018-07-08T01:20:32.321Z,13.95
2018-07-08T01:21:32.272Z,13.95
2018-07-08T01:22:32.246Z,14.05
2018-07-08T01:23:32.175Z,14.19
2018-07-08T01:24:32.125Z,14.32
2018-07-08T01:25:32.081Z,14.32
2018-07-08T01:26:32.032Z,14.33
2018-07-08T01:27:32.005Z,14.37
2018-07-08T01:28:31.937Z,14.36
2018-07-08T01:29:31.881Z,14.48
2018-07-08T01:30:31.835Z,14.48
2018-07-08T01:31:31.804Z,14.55
2018-07-08T01:32:31.765Z,14.45
2018-07-08T01:33:31.689Z,14.47
2018-07-08T01:34:31.640Z,14.50
2018-07-08T01:35:31.594Z,14.50
2018-07-08T01:36:31.547Z,14.48
2018-07-08T01:37:31.524Z,14.50
2018-07-08T01:38:31.463Z,14.40
2018-07-08T01:39:31.404Z,14.45
2018-07-08T01:40:31.351Z,14.36
2018-07-08T01:41:31.303Z,14.40
2018-07-08T01:42:31.282Z,14.41
2018-07-08T01:43:31.208Z,14.41
2018-07-08T01:44:31.160Z,14.45
2018-07-08T01:45:31.116Z,14.36
2018-07-08T01:46:31.062Z,14.44
2018-07-08T01:47:31.037Z,14.43
2018-07-08T01:48:30.966Z,14.38
2018-07-08T01:49:30.916Z,14.40
2018-07-08T01:50:30.869Z,14.37
2018-07-08T01:51:30.824Z,14.36
2018-07-08T01:52:30.799Z,14.33
2018-07-08T01:53:30.724Z,14.38
2018-07-08T01:54:30.680Z,14.25
2018-07-08T01:55:30.625Z,14.29
2018-07-08T01:56:30.580Z,14.22
2018-07-08T01:57:30.559Z,14.20
2018-07-08T01:58:30.485Z,14.18
2018-07-08T01:59:30.434Z,14.15
2018-07-08T02:00:30.387Z,14.07
2018-07-08T02:01:30.339Z,14.08
2018-07-08T02:02:30.317Z,14.05
2018-07-08T02:03:30.242Z,13.96
2018-07-08T02:04:30.200Z,13.95
2018-07-08T02:05:30.151Z,14.00
2018-07-08T02:06:30.102Z,13.96
2018-07-08T02:07:30.076Z,13.86
2018-07-08T02:08:30.008Z,13.92
2018-07-08T02:09:29.952Z,13.85
2018-07-08T02:10:29.901Z,13.82
2018-07-08T02:11:29.858Z,13.77
2018-07-08T02:12:29.830Z,13.72
2018-07-08T02:13:29.769Z,13.63
2018-07-08T02:14:29.721Z,13.72
2018-07-08T02:15:29.661Z,13.64
2018-07-08T02:16:29.614Z,13.49
2018-07-08T02:17:29.591Z,13.47
2018-07-08T02:18:29.527Z,13.47
2018-07-08T02:19:29.469Z,13.49
2018-07-08T02:20:29.423Z,13.50
2018-07-08T02:21:29.373Z,13.45
2018-07-08T02:22:29.357Z,13.53
2018-07-08T02:23:29.276Z,13.49
2018-07-08T02:24:29.236Z,13.46
2018-07-08T02:25:29.178Z,13.43
2018-07-08T02:26:29.132Z,13.37
2018-07-08T02:27:29.107Z,13.47
2018-07-08T02:28:29.039Z,13.46
2018-07-08T02:29:28.988Z,13.39
2018-07-08T02:30:28.939Z,13.35
2018-07-08T02:31:28.891Z,13.29
2018-07-08T02:32:28.872Z,13.22
2018-07-08T02:33:28.792Z,13.30
2018-07-08T02:34:28.744Z,13.27
2018-07-08T02:35:28.691Z,13.19
2018-07-08T02:36:28.645Z,13.24
2018-07-08T02:37:28.599Z,13.24
2018-07-08T02:38:28.572Z,13.21
2018-07-08T02:39:28.499Z,13.22
2018-07-08T02:40:28.452Z,13.19
2018-07-08T02:41:28.405Z,13.15
2018-07-08T02:42:28.356Z,13.19
2018-07-08T02:43:28.333Z,13.21
2018-07-08T02:44:28.260Z,13.18
2018-07-08T02:45:28.212Z,13.12
2018-07-08T02:46:28.162Z,13.13
2018-07-08T02:47:28.111Z,13.12
2018-07-08T02:48:28.087Z,13.06
2018-07-08T02:49:28.013Z,13.12
2018-07-08T02:50:27.967Z,13.13
2018-07-08T02:51:27.918Z,13.13
2018-07-08T02:52:27.871Z,13.19
2018-07-08T02:53:27.842Z,13.11
2018-07-08T02:54:27.779Z,13.06
2018-07-08T02:55:27.725Z,13.11
2018-07-08T02:56:27.675Z,13.09
2018-07-08T02:57:27.625Z,13.05
2018-07-08T02:58:27.606Z,12.97
2018-07-08T02:59:27.532Z,13.06
2018-07-08T03:00:27.483Z,12.97
2018-07-08T03:01:27.429Z,13.06
2018-07-08T03:02:27.385Z,13.08
2018-07-08T03:03:27.369Z,13.18
2018-07-08T03:04:27.288Z,13.29
2018-07-08T03:05:27.232Z,13.31
2018-07-08T03:06:27.185Z,13.27
2018-07-08T03:07:27.135Z,13.30
2018-07-08T03:08:27.111Z,13.38
2018-07-08T03:09:27.042Z,13.27
2018-07-08T03:10:26.993Z,13.21
2018-07-08T03:11:26.942Z,13.18
2018-07-08T03:12:26.888Z,13.15
2018-07-08T03:13:26.871Z,13.13
2018-07-08T03:14:26.797Z,13.06
2018-07-08T03:15:26.753Z,13.09
2018-07-08T03:16:26.700Z,13.09
2018-07-08T03:17:26.652Z,13.00
2018-07-08T03:18:26.623Z,12.90
2018-07-08T03:19:26.550Z,12.97
2018-07-08T03:20:26.504Z,12.94
2018-07-08T03:21:26.460Z,12.88
2018-07-08T03:22:26.409Z,12.91
2018-07-08T03:23:26.382Z,12.87
2018-07-08T03:24:26.314Z,12.75
2018-07-08T03:25:26.261Z,12.79
2018-07-08T03:26:26.215Z,12.78
2018-07-08T03:27:26.171Z,12.78
2018-07-08T03:28:26.136Z,12.85
2018-07-08T03:29:26.071Z,12.90
2018-07-08T03:30:26.017Z,12.94
2018-07-08T03:31:25.967Z,12.94
2018-07-08T03:32:25.916Z,12.97
2018-07-08T03:33:25.914Z,12.91
2018-07-08T03:34:25.824Z,12.85
2018-07-08T03:35:25.773Z,12.94
2018-07-08T03:36:25.724Z,12.96
2018-07-08T03:37:25.675Z,12.90
2018-07-08T03:38:25.653Z,12.76
2018-07-08T03:39:25.574Z,12.80
2018-07-08T03:40:25.531Z,12.76
2018-07-08T03:41:25.479Z,12.75
2018-07-08T03:42:25.426Z,12.75
2018-07-08T03:43:25.403Z,12.75
2018-07-08T03:44:25.332Z,12.69
2018-07-08T03:45:25.291Z,12.63
2018-07-08T03:46:25.234Z,12.73
2018-07-08T03:47:25.190Z,12.68
2018-07-08T03:48:25.170Z,12.68
2018-07-08T03:49:25.084Z,12.61
2018-07-08T03:50:25.037Z,12.71
2018-07-08T03:51:24.997Z,12.80
2018-07-08T03:52:24.940Z,12.78
2018-07-08T03:53:24.926Z,12.85
2018-07-08T03:54:24.854Z,12.78
2018-07-08T03:55:24.799Z,12.76
2018-07-08T03:56:24.746Z,12.72
2018-07-08T03:57:24.697Z,12.73
2018-07-08T03:58:24.647Z,12.71
2018-07-08T03:59:24.627Z,12.65
2018-07-08T04:00:24.551Z,12.78
2018-07-08T04:01:24.503Z,12.76
2018-07-08T04:02:24.454Z,12.75
2018-07-08T04:03:24.404Z,12.72
2018-07-08T04:04:24.382Z,12.80
2018-07-08T04:05:24.304Z,12.90
2018-07-08T04:06:24.261Z,12.90
2018-07-08T04:07:24.205Z,12.88
2018-07-08T04:08:24.159Z,12.72
2018-07-08T04:09:24.132Z,12.80
2018-07-08T04:10:24.064Z,12.79
2018-07-08T04:11:24.012Z,12.80
2018-07-08T04:12:23.965Z,12.79
2018-07-08T04:13:23.917Z,12.78
2018-07-08T04:14:23.893Z,12.73
2018-07-08T04:15:23.900Z,12.72
2018-07-08T04:16:23.770Z,12.78
2018-07-08T04:17:23.722Z,12.80
2018-07-08T04:18:23.670Z,12.78
2018-07-08T04:19:23.646Z,12.83
2018-07-08T04:20:23.591Z,12.85
2018-07-08T04:21:23.527Z,12.90
2018-07-08T04:22:23.475Z,12.97
2018-07-08T04:23:23.429Z,12.91
2018-07-08T04:24:23.406Z,12.98
2018-07-08T04:25:23.325Z,13.11
2018-07-08T04:26:23.284Z,13.12
2018-07-08T04:27:23.235Z,13.16
2018-07-08T04:28:23.187Z,13.21
2018-07-08T04:29:23.163Z,13.30
2018-07-08T04:30:23.140Z,13.35
2018-07-08T04:31:23.036Z,13.41
2018-07-08T04:32:22.987Z,13.35
2018-07-08T04:33:22.937Z,13.47
2018-07-08T04:34:22.914Z,13.59
2018-07-08T04:35:22.841Z,13.67
2018-07-08T04:36:22.795Z,13.72
2018-07-08T04:37:22.749Z,13.80
2018-07-08T04:38:22.698Z,13.89
2018-07-08T04:39:22.674Z,13.97
2018-07-08T04:40:22.601Z,14.13
2018-07-08T04:41:22.550Z,14.23
2018-07-08T04:42:22.506Z,14.26
2018-07-08T04:43:22.455Z,14.40
2018-07-08T04:44:22.434Z,14.33
2018-07-08T04:45:22.363Z,14.44
2018-07-08T04:46:22.324Z,14.55
2018-07-08T04:47:22.261Z,14.55
2018-07-08T04:48:22.216Z,14.69
2018-07-08T04:49:22.232Z,14.79
2018-07-08T04:50:22.124Z,14.89
2018-07-08T04:51:22.071Z,14.84
2018-07-08T04:52:22.026Z,14.97
2018-07-08T04:53:21.975Z,14.97
2018-07-08T04:54:21.953Z,14.96
2018-07-08T04:55:21.880Z,15.04
2018-07-08T04:56:21.831Z,15.15
2018-07-08T04:57:21.783Z,15.19
2018-07-08T04:58:21.736Z,15.22
2018-07-08T04:59:21.709Z,15.32
2018-07-08T05:00:21.639Z,15.35
2018-07-08T05:01:21.593Z,15.43
2018-07-08T05:02:21.545Z,15.46
2018-07-08T05:03:21.510Z,15.57
2018-07-08T05:04:21.471Z,15.65
2018-07-08T05:05:21.407Z,15.62
2018-07-08T05:06:21.352Z,15.72
2018-07-08T05:07:21.311Z,15.80
2018-07-08T05:08:21.256Z,15.80
2018-07-08T05:09:21.238Z,15.85
2018-07-08T05:10:21.163Z,15.95
2018-07-08T05:11:21.112Z,16.09
2018-07-08T05:12:21.063Z,16.05
2018-07-08T05:13:21.021Z,16.00
2018-07-08T05:14:20.999Z,16.15
2018-07-08T05:15:20.929Z,16.24
2018-07-08T05:16:20.878Z,16.28
2018-07-08T05:17:20.829Z,16.38
2018-07-08T05:18:20.786Z,16.34
2018-07-08T05:19:20.760Z,16.35
2018-07-08T05:20:20.747Z,16.36
2018-07-08T05:21:20.641Z,16.38
2018-07-08T05:22:20.596Z,16.49
2018-07-08T05:23:20.550Z,16.47
2018-07-08T05:24:21.201Z,16.59
2018-07-08T05:25:20.489Z,16.64
2018-07-08T05:26:20.409Z,16.74
2018-07-08T05:27:20.360Z,16.82
2018-07-08T05:28:20.314Z,16.79
2018-07-08T05:29:20.283Z,16.76
2018-07-08T05:30:20.254Z,16.84
2018-07-08T05:31:20.187Z,16.87
2018-07-08T05:32:20.130Z,16.87
2018-07-08T05:33:20.091Z,16.94
2018-07-08T05:34:20.035Z,16.87
2018-07-08T05:35:20.006Z,16.87
2018-07-08T05:36:19.943Z,16.86
2018-07-08T05:37:19.909Z,16.76
2018-07-08T05:38:19.862Z,16.79
2018-07-08T05:39:19.807Z,16.71
2018-07-08T05:40:19.774Z,16.66
2018-07-08T05:41:19.702Z,16.66
2018-07-08T05:42:19.658Z,16.64
2018-07-08T05:43:19.610Z,16.44
2018-07-08T05:44:19.562Z,16.44
2018-07-08T05:45:19.540Z,16.43
2018-07-08T05:46:19.471Z,16.47
2018-07-08T05:47:19.423Z,16.62
2018-07-08T05:48:19.375Z,16.66
2018-07-08T05:49:19.325Z,16.75
2018-07-08T05:50:19.359Z,16.64
2018-07-08T05:51:19.236Z,16.66
2018-07-08T05:52:19.196Z,16.53
2018-07-08T05:53:19.141Z,16.59
2018-07-08T05:54:19.094Z,16.62
2018-07-08T05:55:19.074Z,16.75
2018-07-08T05:56:19.000Z,16.89
2018-07-08T05:57:18.956Z,16.66
2018-07-08T05:58:18.922Z,16.84
2018-07-08T05:59:18.858Z,16.93
2018-07-08T06:00:18.849Z,16.87
2018-07-08T06:01:18.771Z,16.93
2018-07-08T06:02:18.730Z,17.02
2018-07-08T06:03:18.675Z,17.09
2018-07-08T06:04:18.668Z,17.12
2018-07-08T06:05:18.600Z,17.02
2018-07-08T06:06:18.539Z,16.96
2018-07-08T06:07:18.492Z,16.96
2018-07-08T06:08:18.457Z,17.11
2018-07-08T06:09:18.400Z,17.24
2018-07-08T06:10:18.379Z,17.35
2018-07-08T06:11:18.321Z,17.45
2018-07-08T06:12:18.275Z,17.42
2018-07-08T06:13:18.204Z,17.42
2018-07-08T06:14:18.157Z,17.33
2018-07-08T06:15:18.201Z,17.35
2018-07-08T06:16:18.071Z,17.16
2018-07-08T06:17:18.026Z,17.22
2018-07-08T06:18:17.982Z,17.08
2018-07-08T06:19:17.929Z,17.14
2018-07-08T06:20:17.906Z,17.12
2018-07-08T06:21:17.861Z,17.02
2018-07-08T06:22:17.785Z,17.09
2018-07-08T06:23:17.738Z,17.12
2018-07-08T06:24:17.694Z,16.98
2018-07-08T06:25:17.672Z,17.12
2018-07-08T06:26:17.634Z,17.27
2018-07-08T06:27:17.556Z,17.35
2018-07-08T06:28:17.518Z,17.41
2018-07-08T06:29:17.460Z,17.60
2018-07-08T06:30:17.440Z,17.70
2018-07-08T06:31:17.391Z,17.71
2018-07-08T06:32:17.316Z,17.82
2018-07-08T06:33:17.281Z,17.79
2018-07-08T06:34:17.226Z,17.65
2018-07-08T06:35:17.212Z,17.70
2018-07-08T06:36:17.142Z,17.68
2018-07-08T06:37:17.084Z,17.67
2018-07-08T06:38:17.039Z,17.78
2018-07-08T06:39:16.999Z,17.79
2018-07-08T06:40:16.988Z,17.89
2018-07-08T06:41:16.904Z,17.91
2018-07-08T06:42:16.863Z,17.97
2018-07-08T06:43:16.816Z,17.80
2018-07-08T06:44:16.762Z,17.82
2018-07-08T06:45:16.716Z,17.83
2018-07-08T06:46:16.701Z,17.76
2018-07-08T06:47:16.629Z,17.70
2018-07-08T06:48:16.579Z,17.82
2018-07-08T06:49:16.571Z,18.01
2018-07-08T06:50:16.537Z,17.98
2018-07-08T06:51:16.468Z,18.09
2018-07-08T06:52:16.389Z,18.18
2018-07-08T06:53:16.349Z,18.25
2018-07-08T06:54:16.303Z,18.37
2018-07-08T06:55:16.249Z,18.49
2018-07-08T06:56:16.233Z,18.67
2018-07-08T06:57:16.190Z,18.70
2018-07-08T06:58:16.115Z,18.75
2018-07-08T06:59:16.073Z,18.70
2018-07-08T07:00:16.017Z,18.77
2018-07-08T07:01:16.008Z,18.78
2018-07-08T07:02:15.925Z,18.78
2018-07-08T07:03:15.882Z,18.86
2018-07-08T07:04:15.832Z,18.50
2018-07-08T07:05:15.793Z,18.58
2018-07-08T07:06:15.766Z,18.48
2018-07-08T07:07:15.703Z,18.30
2018-07-08T07:08:15.695Z,18.12
2018-07-08T07:09:15.608Z,18.05
2018-07-08T07:10:15.567Z,18.19
2018-07-08T07:11:15.540Z,18.23
2018-07-08T07:12:15.471Z,18.37
2018-07-08T07:13:15.420Z,18.62
2018-07-08T07:14:15.383Z,18.73
2018-07-08T07:15:15.325Z,18.80
2018-07-08T07:16:15.312Z,18.78
2018-07-08T07:17:15.246Z,18.70
2018-07-08T07:18:15.190Z,18.80
2018-07-08T07:19:15.144Z,18.83
2018-07-08T07:20:15.101Z,18.99
2018-07-08T07:21:15.075Z,19.24
2018-07-08T07:22:15.008Z,19.34
2018-07-08T07:23:14.965Z,19.41
2018-07-08T07:24:14.912Z,19.33
2018-07-08T07:25:14.876Z,19.49
2018-07-08T07:26:14.846Z,19.30
2018-07-08T07:27:14.776Z,19.29
2018-07-08T07:28:14.731Z,19.07
2018-07-08T07:29:14.691Z,18.95
2018-07-08T07:30:14.647Z,18.83
2018-07-08T07:31:14.619Z,18.63
2018-07-08T07:32:14.549Z,18.56
2018-07-08T07:33:14.500Z,18.43
2018-07-08T07:34:14.463Z,18.46
2018-07-08T07:35:14.412Z,18.48
2018-07-08T07:36:14.388Z,18.71
2018-07-08T07:37:14.353Z,18.77
2018-07-08T07:38:14.278Z,18.92
2018-07-08T07:39:14.229Z,18.98
2018-07-08T07:40:14.185Z,19.19
2018-07-08T07:41:14.163Z,19.22
2018-07-08T07:42:14.090Z,19.14
2018-07-08T07:43:14.057Z,19.27
2018-07-08T07:44:13.998Z,19.33
2018-07-08T07:45:13.967Z,19.45
2018-07-08T07:46:13.934Z,19.45
2018-07-08T07:47:13.863Z,19.41
2018-07-08T07:48:13.817Z,19.45
2018-07-08T07:49:13.766Z,19.45
2018-07-08T07:50:13.729Z,19.36
2018-07-08T07:51:13.742Z,19.39
2018-07-08T07:52:13.633Z,19.41
2018-07-08T07:53:13.591Z,19.49
2018-07-08T07:54:13.541Z,19.52
2018-07-08T07:55:13.497Z,19.51
2018-07-08T07:56:13.472Z,19.63
2018-07-08T07:57:13.419Z,19.55
2018-07-08T07:58:13.387Z,19.70
2018-07-08T07:59:13.316Z,19.88
2018-07-08T08:00:13.266Z,19.86
2018-07-08T08:01:13.253Z,19.86
2018-07-08T08:02:13.185Z,19.78
2018-07-08T08:03:13.134Z,19.89
2018-07-08T08:04:13.086Z,19.97
2018-07-08T08:05:13.259Z,19.91
2018-07-08T08:06:13.017Z,20.09
2018-07-08T08:07:12.972Z,20.22
2018-07-08T08:08:12.905Z,20.18
2018-07-08T08:09:12.862Z,20.19
2018-07-08T08:10:12.815Z,20.18
2018-07-08T08:11:12.801Z,20.25
2018-07-08T08:12:12.760Z,20.26
2018-07-08T08:13:12.683Z,20.24
2018-07-08T08:14:12.637Z,20.19
2018-07-08T08:15:12.588Z,20.29
2018-07-08T08:16:12.545Z,20.25
2018-07-08T08:17:12.527Z,20.22
2018-07-08T08:18:12.456Z,20.18
2018-07-08T08:19:12.405Z,20.25
2018-07-08T08:20:12.359Z,20.39
2018-07-08T08:21:12.324Z,20.44
2018-07-08T08:22:12.298Z,20.39
2018-07-08T08:23:12.226Z,20.48
2018-07-08T08:24:12.185Z,20.62
2018-07-08T08:25:12.138Z,20.62
2018-07-08T08:26:12.094Z,20.66
2018-07-08T08:27:12.071Z,20.78
2018-07-08T08:28:12.000Z,20.80
2018-07-08T08:29:11.957Z,20.92
2018-07-08T08:30:11.914Z,20.92
2018-07-08T08:31:11.866Z,20.95
2018-07-08T08:32:11.850Z,20.92
2018-07-08T08:33:11.777Z,20.89
2018-07-08T08:34:11.733Z,20.93
2018-07-08T08:35:11.686Z,21.03
2018-07-08T08:36:11.642Z,21.12
2018-07-08T08:37:11.618Z,21.18
2018-07-08T08:38:11.577Z,21.10
2018-07-08T08:39:11.506Z,21.06
2018-07-08T08:40:11.460Z,20.93
2018-07-08T08:41:11.415Z,20.99
2018-07-08T08:42:11.398Z,20.96
2018-07-08T08:43:11.329Z,21.08
2018-07-08T08:44:11.281Z,21.11
2018-07-08T08:45:11.239Z,21.05
2018-07-08T08:46:11.201Z,21.10
2018-07-08T08:47:11.169Z,21.08
2018-07-08T08:48:11.110Z,21.08
2018-07-08T08:49:11.061Z,20.97
2018-07-08T08:50:11.015Z,20.95
2018-07-08T08:51:10.971Z,20.92
2018-07-08T08:52:10.945Z,21.00
2018-07-08T08:53:10.882Z,21.00
2018-07-08T08:54:10.843Z,20.97
2018-07-08T08:55:10.788Z,21.12
2018-07-08T08:56:10.752Z,21.17
2018-07-08T08:57:10.723Z,21.26
2018-07-08T08:58:10.655Z,21.29
2018-07-08T08:59:10.607Z,21.29
2018-07-08T09:00:10.569Z,21.12
2018-07-08T09:01:10.521Z,21.15
2018-07-08T09:02:10.511Z,21.17
2018-07-08T09:03:10.433Z,21.26
2018-07-08T09:04:10.391Z,21.17
2018-07-08T09:05:10.345Z,21.24
2018-07-08T09:06:10.310Z,21.29
2018-07-08T09:07:10.279Z,21.27
2018-07-08T09:08:10.213Z,21.29
2018-07-08T09:09:10.163Z,21.17
2018-07-08T09:10:10.125Z,21.02
2018-07-08T09:11:10.080Z,21.08
2018-07-08T09:12:10.060Z,21.12
2018-07-08T09:13:10.005Z,21.27
2018-07-08T09:14:09.942Z,21.26
2018-07-08T09:15:09.902Z,21.33
2018-07-08T09:16:09.852Z,21.36
2018-07-08T09:17:09.870Z,21.39
2018-07-08T09:18:09.765Z,21.42
2018-07-08T09:19:09.721Z,21.54
2018-07-08T09:20:09.674Z,21.59
2018-07-08T09:21:09.633Z,21.47
2018-07-08T09:22:09.608Z,21.57
2018-07-08T09:23:09.543Z,21.57
2018-07-08T09:24:09.539Z,21.76
2018-07-08T09:25:09.458Z,21.73
2018-07-08T09:26:09.412Z,21.98
2018-07-08T09:27:09.400Z,21.93
2018-07-08T09:28:09.321Z,21.93
2018-07-08T09:29:09.281Z,22.01
2018-07-08T09:30:09.230Z,21.90
2018-07-08T09:31:09.191Z,21.98
2018-07-08T09:32:09.178Z,21.98
2018-07-08T09:33:09.099Z,22.01
2018-07-08T09:34:09.064Z,22.14
2018-07-08T09:35:09.011Z,22.29
2018-07-08T09:36:08.963Z,22.25
2018-07-08T09:37:08.921Z,22.29
2018-07-08T09:38:08.903Z,22.28
2018-07-08T09:39:08.957Z,22.23
2018-07-08T09:40:08.788Z,22.35
2018-07-08T09:41:08.749Z,22.38
2018-07-08T09:42:08.706Z,22.23
2018-07-08T09:43:08.674Z,22.32
2018-07-08T09:44:08.614Z,22.44
2018-07-08T09:45:08.573Z,22.36
2018-07-08T09:46:08.521Z,22.50
2018-07-08T09:47:08.485Z,22.50
2018-07-08T09:48:08.467Z,22.44
2018-07-08T09:49:08.394Z,22.45
2018-07-08T09:50:08.345Z,22.35
2018-07-08T09:51:08.304Z,22.35
2018-07-08T09:52:08.265Z,22.36
2018-07-08T09:53:08.245Z,22.36
2018-07-08T09:54:08.172Z,22.44
2018-07-08T09:55:08.129Z,22.44
2018-07-08T09:56:08.084Z,22.38
2018-07-08T09:57:08.041Z,22.28
2018-07-08T09:58:08.089Z,22.28
2018-07-08T09:59:07.949Z,22.32
2018-07-08T10:00:07.912Z,22.33
2018-07-08T10:01:07.867Z,22.29
2018-07-08T10:02:07.823Z,22.33
2018-07-08T10:03:07.805Z,22.40
2018-07-08T10:04:07.740Z,22.45
2018-07-08T10:05:07.694Z,22.56
2018-07-08T10:06:07.652Z,22.62
2018-07-08T10:07:07.615Z,22.53
2018-07-08T10:08:07.586Z,22.65
2018-07-08T10:09:07.528Z,22.59
2018-07-08T10:10:07.485Z,22.53
2018-07-08T10:11:07.426Z,22.59
2018-07-08T10:12:07.389Z,22.59
2018-07-08T10:13:07.365Z,22.53
2018-07-08T10:14:07.357Z,22.56
2018-07-08T10:15:07.257Z,22.65
2018-07-08T10:16:07.208Z,22.68
2018-07-08T10:17:07.169Z,22.70
2018-07-08T10:18:07.148Z,22.69
2018-07-08T10:19:07.079Z,22.66
2018-07-08T10:20:07.099Z,22.65
2018-07-08T10:21:06.992Z,22.45
2018-07-08T10:22:06.953Z,22.50
2018-07-08T10:23:06.927Z,22.47
2018-07-08T10:24:06.865Z,22.47
2018-07-08T10:25:06.822Z,22.41
2018-07-08T10:26:06.778Z,22.40
2018-07-08T10:27:06.727Z,22.48
2018-07-08T10:28:06.714Z,22.48
2018-07-08T10:29:06.637Z,22.47
2018-07-08T10:30:06.599Z,22.45
2018-07-08T10:31:06.554Z,22.47
2018-07-08T10:32:06.518Z,22.48
2018-07-08T10:33:06.496Z,22.48
2018-07-08T10:34:06.422Z,22.47
2018-07-08T10:35:06.379Z,22.62
2018-07-08T10:36:06.337Z,22.63
2018-07-08T10:37:06.297Z,22.77
2018-07-08T10:38:06.261Z,22.83
2018-07-08T10:39:06.228Z,22.84
2018-07-08T10:40:06.160Z,22.87
2018-07-08T10:41:06.121Z,22.87
2018-07-08T10:42:06.077Z,22.87
2018-07-08T10:43:06.036Z,22.90
2018-07-08T10:44:06.016Z,22.90
2018-07-08T10:45:05.944Z,22.85
2018-07-08T10:46:05.902Z,22.85
2018-07-08T10:47:05.865Z,22.83
2018-07-08T10:48:05.813Z,22.78
2018-07-08T10:49:05.798Z,22.69
2018-07-08T10:50:05.784Z,22.70
2018-07-08T10:51:05.689Z,22.69
2018-07-08T10:52:05.641Z,22.62
2018-07-08T10:53:05.646Z,22.78
2018-07-08T10:54:05.574Z,22.72
2018-07-08T10:55:05.519Z,22.65
2018-07-08T10:56:05.472Z,22.81
2018-07-08T10:57:05.422Z,22.88
2018-07-08T10:58:05.381Z,22.88
2018-07-08T10:59:05.363Z,23.00
2018-07-08T11:00:05.293Z,22.98
2018-07-08T11:01:05.247Z,22.98
2018-07-08T11:02:05.207Z,22.85
2018-07-08T11:03:05.157Z,23.00
2018-07-08T11:04:05.143Z,22.98
2018-07-08T11:05:05.073Z,23.07
2018-07-08T11:06:05.033Z,22.99
2018-07-08T11:07:04.984Z,22.98
2018-07-08T11:08:04.947Z,23.05
2018-07-08T11:09:04.926Z,23.00
2018-07-08T11:10:04.857Z,22.96
2018-07-08T11:11:04.815Z,23.05
2018-07-08T11:12:04.769Z,22.95
2018-07-08T11:13:04.745Z,23.03
2018-07-08T11:14:04.714Z,22.98
2018-07-08T11:15:04.683Z,22.93
2018-07-08T11:16:04.594Z,23.05
2018-07-08T11:17:04.558Z,23.21
2018-07-08T11:18:04.512Z,23.17
2018-07-08T11:19:04.486Z,23.25
2018-07-08T11:20:04.421Z,23.40
2018-07-08T11:21:04.380Z,23.38
2018-07-08T11:22:04.339Z,23.40
2018-07-08T11:23:04.290Z,23.47
2018-07-08T11:24:04.337Z,23.52
2018-07-08T11:25:04.206Z,23.61
2018-07-08T11:26:04.192Z,23.63
2018-07-08T11:27:04.120Z,23.59
2018-07-08T11:28:04.073Z,23.62
2018-07-08T11:29:04.052Z,23.56
2018-07-08T11:30:03.987Z,23.55
2018-07-08T11:31:03.947Z,23.58
2018-07-08T11:32:03.899Z,23.53
2018-07-08T11:33:04.295Z,23.55
2018-07-08T11:34:03.837Z,23.65
2018-07-08T11:35:03.771Z,23.71
2018-07-08T11:36:03.730Z,23.63
2018-07-08T11:37:03.695Z,23.62
2018-07-08T11:38:03.659Z,23.78
2018-07-08T11:39:03.629Z,23.78
2018-07-08T11:40:03.554Z,23.74
2018-07-08T11:41:03.515Z,23.71
2018-07-08T11:42:03.479Z,23.71
2018-07-08T11:43:03.427Z,23.70
2018-07-08T11:44:03.381Z,23.68
2018-07-08T11:45:03.365Z,23.59
2018-07-08T11:46:03.295Z,23.63
2018-07-08T11:47:03.253Z,23.56
2018-07-08T11:48:03.207Z,23.52
2018-07-08T11:49:03.166Z,23.53
2018-07-08T11:50:03.154Z,23.47
2018-07-08T11:51:03.077Z,23.52
2018-07-08T11:52:03.036Z,23.56
2018-07-08T11:53:02.992Z,23.66
2018-07-08T11:54:02.952Z,23.68
2018-07-08T11:55:02.927Z,23.76
2018-07-08T11:56:02.862Z,23.71
2018-07-08T11:57:02.820Z,23.63
2018-07-08T11:58:02.773Z,23.71
2018-07-08T11:59:02.731Z,23.74
2018-07-08T12:00:02.710Z,23.70
2018-07-08T12:01:02.653Z,23.80
2018-07-08T12:02:02.608Z,23.81
2018-07-08T12:03:02.565Z,23.78
2018-07-08T12:04:02.518Z,23.80
2018-07-08T12:05:02.529Z,23.73
2018-07-08T12:06:02.434Z,23.62
2018-07-08T12:07:02.383Z,23.62
2018-07-08T12:08:02.340Z,23.63
2018-07-08T12:09:02.398Z,23.73
2018-07-08T12:10:02.281Z,23.76
2018-07-08T12:11:02.213Z,23.84
2018-07-08T12:12:02.163Z,23.90
2018-07-08T12:13:02.129Z,23.80
2018-07-08T12:14:02.075Z,23.88
2018-07-08T12:15:02.066Z,23.98
2018-07-08T12:16:01.994Z,24.00
2018-07-08T12:17:01.961Z,23.99
2018-07-08T12:18:01.909Z,24.07
2018-07-08T12:19:01.867Z,24.18
2018-07-08T12:20:01.842Z,24.03
2018-07-08T12:21:01.784Z,24.10
2018-07-08T12:22:01.733Z,24.15
2018-07-08T12:23:01.688Z,24.14
2018-07-08T12:24:01.648Z,24.03
2018-07-08T12:25:01.630Z,23.99
2018-07-08T12:26:01.562Z,23.93
2018-07-08T12:27:01.515Z,23.90
2018-07-08T12:28:01.473Z,24.10
2018-07-08T12:29:01.427Z,24.05
2018-07-08T12:30:01.411Z,24.13
2018-07-08T12:31:01.338Z,24.26
2018-07-08T12:32:01.301Z,24.30
2018-07-08T12:33:01.276Z,24.30
2018-07-08T12:34:01.211Z,24.29
2018-07-08T12:35:01.192Z,24.26
2018-07-08T12:36:01.122Z,24.18
2018-07-08T12:37:01.080Z,24.28
2018-07-08T12:38:01.061Z,24.26
2018-07-08T12:39:01.010Z,24.29
2018-07-08T12:40:00.972Z,24.29
2018-07-08T12:41:00.909Z,24.21
2018-07-08T12:42:00.864Z,24.28
2018-07-08T12:43:00.821Z,24.36
2018-07-08T12:44:00.790Z,24.37
2018-07-08T12:45:00.761Z,24.32
2018-07-08T12:46:00.698Z,24.35
2018-07-08T12:47:00.652Z,24.37
2018-07-08T12:48:00.600Z,24.37
2018-07-08T12:49:00.593Z,24.29
2018-07-08T12:50:00.542Z,24.25
2018-07-08T12:51:00.474Z,24.26
2018-07-08T12:52:00.429Z,24.36